Joplin, MO

12:56 PM CDT on August 22, 2014 (GMT -0500)
Mohaska | Change Station
CLOSE
Current Station
Personal Weather Station
Location: Joplin, MO
Elevation: 1010 ft
Nearby Weather Stations

Elev 1010 ft 37.06 °N, 94.52 °W | Updated 2 minutes ago

Clear
Clear
93.7 °F
Feels Like 103 °F
N
8.0
Wind Variable Wind from SW
Gusts 13.0 mph

Today
High -- | Low -- °F
--% Chance of Precip.
Yesterday
High -- | Low -- °F
Precip. -- in
6:40 AM 8:00 PM
Waning Crescent, 7% visible
Pressure 29.95 in
Visibility 10.0 miles
Clouds Clear
Heat Index 103 °F
Dew Point 73 °F
Humidity 51%
Rainfall 0.00 in
Snow Depth Not available.
UV 10 out of 12
Pollen 10.70 out of 12
Air Quality Not available.
Flu Activity Not available.
METAR KJLN 221753Z 19015G21KT 10SM CLR 35/21 A2999 RMK AO2 SLP141 T03500211 10350 20256 58004

More Conditions Fewer Conditions

Pressure 29.95 in
Visibility 10.0 miles
Clouds Clear
Heat Index 103 °F
Dew Point 73 °F
Humidity 51%
Rainfall 0.00 in
Snow Depth Not available.
UV 10 out of 12
Pollen 10.70 out of 12
Air Quality Not available.
Flu Activity Not available.
METAR KJLN 221753Z 19015G21KT 10SM CLR 35/21 A2999 RMK AO2 SLP141 T03500211 10350 20256 58004

More Conditions Fewer Conditions

10-Day Weather Forecast

Almanac

Astronomy

Aug. 22, 2014 Rise Set
Actual Time 6:40 AM CDT 8:00 PM CDT
Civil Twilight 6:13 AM CDT 8:27 PM CDT
Nautical Twilight 5:40 AM CDT 9:00 PM CDT
Astronomical Twilight 5:06 AM CDT 9:34 PM CDT
Moon 4:05 AM CDT 6:08 PM CDT
Length of Visible Light 14h 14m
Length of Day
13h 20m
Tomorrow will be 2m 11s shorter.
Waning Crescent, 7% of the Moon is Illuminated
Today
Waning Crescent
Aug 25
New
Sep 2
First Quarter
Sep 8
Full
Sep 15
Last Quarter

Today's Extremes

State Highs State Lows

Community

WunderPhotos

Upload Photos

1,746,206 photos uploaded!

WunderBlogs® & News

Nearby

Snow Depth

Station Depth Elevation
No new snow has been reported.

Earthquake Activity

City Distance Mag. Time & Date
Boley, Oklahoma 162 miles 3.4 9:50 PM CDT
2014-08-17
Minimum magnitude displayed is 2.5.

Coastal Water Temperatures

Place Temperature
No Stations Reporting

Nearby Weather Stations